Time;durP1;ratioP1;P1;durP2;ratioP2;P2;SDS_P1;SDS_P2;PMS_P1;PMS_P2;Temp;Humidity;BMP_temperature;BMP_pressure;BME280_temperature;BME280_humidity;BME280_pressure;Samples;Min_cycle;Max_cycle;Signal;HPM_P1;HPM_P2
2023/06/01 00:00:33;;;;;;;5.23;2.50;;;;;;;17.00;48.89;98213.47;5013965;28;20210;-76
2023/06/01 00:03:00;;;;;;;3.73;2.77;;;;;;;17.07;48.58;98222.97;5013409;28;20222;-77
2023/06/01 00:05:26;;;;;;;3.77;2.47;;;;;;;17.00;49.81;98222.34;5013486;28;20230;-76
2023/06/01 00:07:52;;;;;;;5.23;2.93;;;;;;;16.90;50.96;98232.19;5013638;28;20194;-76
2023/06/01 00:10:19;;;;;;;6.17;2.83;;;;;;;16.87;49.67;98233.50;5013349;28;20210;-76
2023/06/01 00:12:45;;;;;;;4.20;2.60;;;;;;;16.89;49.25;98234.06;5013637;28;20202;-76
2023/06/01 00:15:11;;;;;;;5.37;2.83;;;;;;;16.91;51.61;98231.09;5013488;28;20206;-76
2023/06/01 00:17:38;;;;;;;4.30;2.60;;;;;;;16.76;52.20;98221.06;5013887;28;20213;-76
2023/06/01 00:20:07;;;;;;;4.97;2.93;;;;;;;16.74;51.91;98217.00;5013515;28;20293;-77
2023/06/01 00:22:38;;;;;;;6.50;3.00;;;;;;;16.75;50.96;98224.00;5013514;28;20241;-76
2023/06/01 00:25:08;;;;;;;4.40;2.70;;;;;;;16.82;50.18;98229.97;5013471;28;20194;-76
2023/06/01 00:27:34;;;;;;;4.63;2.77;;;;;;;16.86;49.95;98223.00;5013490;28;20214;-76
2023/06/01 00:30:00;;;;;;;5.40;2.93;;;;;;;16.82;50.96;98227.28;5013228;28;20232;-77
2023/06/01 00:32:27;;;;;;;4.53;3.10;;;;;;;16.79;51.44;98227.78;5013515;28;20202;-77
2023/06/01 00:34:53;;;;;;;3.90;2.87;;;;;;;16.54;50.92;98220.28;5013460;28;20207;-76
2023/06/01 00:37:19;;;;;;;4.20;2.40;;;;;;;16.57;51.09;98219.81;5013364;28;20238;-77
2023/06/01 00:39:46;;;;;;;5.93;3.03;;;;;;;16.46;51.86;98228.00;5015848;28;20700;-76
2023/06/01 00:42:12;;;;;;;6.47;3.30;;;;;;;16.48;51.45;98223.19;5016699;28;20705;-77
2023/06/01 00:44:38;;;;;;;6.93;3.03;;;;;;;16.59;51.77;98222.22;5016788;28;20692;-77
2023/06/01 00:47:05;;;;;;;4.97;2.90;;;;;;;16.50;51.45;98224.53;5016935;28;20230;-76
2023/06/01 00:49:32;;;;;;;3.80;2.73;;;;;;;16.50;51.49;98226.41;5016815;28;20202;-76
2023/06/01 00:51:58;;;;;;;3.60;2.80;;;;;;;16.57;51.55;98222.47;5016887;28;20211;-76
2023/06/01 00:54:25;;;;;;;3.03;2.43;;;;;;;16.54;51.63;98212.25;5016528;28;20211;-76
2023/06/01 00:56:51;;;;;;;4.57;2.60;;;;;;;16.40;51.98;98224.44;5016425;28;20233;-76
2023/06/01 00:59:18;;;;;;;5.00;3.10;;;;;;;16.33;52.12;98218.41;5017593;28;20549;-76
2023/06/01 01:01:44;;;;;;;5.27;2.90;;;;;;;16.37;52.48;98218.75;5015403;28;20226;-76
2023/06/01 01:04:13;;;;;;;5.33;3.27;;;;;;;16.30;52.67;98216.25;5016376;28;20692;-76
2023/06/01 01:07:09;;;;;;;5.97;3.10;;;;;;;16.20;53.24;98208.06;5016200;28;20234;-76
2023/06/01 01:10:07;;;;;;;4.27;2.90;;;;;;;16.19;53.40;98213.69;5015111;28;20198;-76
2023/06/01 01:12:54;;;;;;;3.90;2.87;;;;;;;16.22;53.38;98208.63;5016575;28;20190;-76
2023/06/01 01:15:39;;;;;;;4.53;3.07;;;;;;;16.19;53.60;98211.81;5016100;28;20665;-76
2023/06/01 01:18:14;;;;;;;6.13;2.90;;;;;;;16.12;53.70;98221.94;5015282;28;20194;-76
2023/06/01 01:20:44;;;;;;;4.27;2.80;;;;;;;16.06;54.02;98217.56;5016150;28;20654;-76
2023/06/01 01:23:29;;;;;;;6.87;2.87;;;;;;;16.00;54.46;98213.19;5015922;28;20214;-76
2023/06/01 01:26:24;;;;;;;4.27;2.60;;;;;;;15.99;54.37;98200.84;5016210;28;20226;-77
2023/06/01 01:28:55;;;;;;;4.33;2.93;;;;;;;15.87;54.89;98210.88;5016265;28;20198;-77
2023/06/01 01:31:25;;;;;;;4.97;2.77;;;;;;;15.94;54.76;98211.53;5016207;28;20191;-76
2023/06/01 01:33:55;;;;;;;6.13;2.87;;;;;;;15.93;54.78;98209.09;5015859;28;20685;-76
2023/06/01 01:36:22;;;;;;;5.20;2.63;;;;;;;15.95;55.37;98207.78;5016019;28;20230;-76
2023/06/01 01:38:48;;;;;;;5.07;2.90;;;;;;;15.78;57.43;98201.66;5016036;28;20238;-76
2023/06/01 01:41:16;;;;;;;4.53;2.80;;;;;;;15.79;57.36;98197.09;5015935;28;20214;-76
2023/06/01 01:43:43;;;;;;;7.67;2.80;;;;;;;15.64;57.50;98207.59;5015911;28;20229;-76
2023/06/01 01:46:25;;;;;;;5.83;2.90;;;;;;;15.45;58.80;98201.72;5015856;28;20706;-76
2023/06/01 01:49:13;;;;;;;4.63;3.10;;;;;;;15.43;58.73;98203.81;5015878;28;20565;-76
2023/06/01 01:51:55;;;;;;;5.57;3.00;;;;;;;15.22;60.24;98198.38;5014816;28;20689;-77
2023/06/01 01:54:22;;;;;;;6.77;3.00;;;;;;;15.14;60.95;98198.78;5015490;28;20195;-77
2023/06/01 01:56:51;;;;;;;6.50;3.10;;;;;;;15.07;61.51;98195.47;5015331;28;20242;-76
2023/06/01 01:59:18;;;;;;;7.50;2.93;;;;;;;15.07;61.69;98198.16;5015350;28;20211;-76
2023/06/01 02:01:45;;;;;;;4.57;2.93;;;;;;;15.15;61.56;98193.19;5015559;28;20269;-76
2023/06/01 02:04:12;;;;;;;7.03;2.83;;;;;;;15.22;61.00;98196.53;5015567;28;20206;-76
2023/06/01 02:06:38;;;;;;;4.40;2.90;;;;;;;15.09;61.86;98196.84;5014375;28;20680;-76
2023/06/01 02:09:06;;;;;;;3.87;2.70;;;;;;;15.01;62.20;98199.13;5014006;28;20206;-76
2023/06/01 02:11:33;;;;;;;6.00;3.30;;;;;;;15.09;60.82;98199.53;5013991;28;20206;-76
2023/06/01 02:14:00;;;;;;;8.37;2.80;;;;;;;14.97;62.44;98192.66;5014085;28;20275;-76
2023/06/01 02:16:26;;;;;;;5.17;2.87;;;;;;;14.91;62.21;98189.06;5013465;28;20256;-77
2023/06/01 02:18:53;;;;;;;4.47;2.83;;;;;;;14.83;62.68;98191.34;5013888;28;20221;-76
2023/06/01 02:21:19;;;;;;;5.33;2.90;;;;;;;14.79;62.61;98182.16;5013858;28;20237;-76
2023/06/01 02:23:46;;;;;;;5.43;2.77;;;;;;;14.84;63.96;98187.59;5014936;28;20206;-76
2023/06/01 02:26:12;;;;;;;4.77;2.53;;;;;;;14.82;63.46;98195.88;5014818;28;20714;-76
2023/06/01 02:28:40;;;;;;;6.00;2.33;;;;;;;14.77;64.21;98187.75;5015185;28;20555;-77
2023/06/01 02:31:07;;;;;;;5.90;3.10;;;;;;;14.68;64.38;98189.22;5015098;28;20210;-76
2023/06/01 02:33:34;;;;;;;3.47;3.00;;;;;;;14.67;63.82;98192.13;5015206;28;20202;-76
2023/06/01 02:36:00;;;;;;;7.17;2.63;;;;;;;14.84;62.16;98187.59;5014940;28;20748;-77
2023/06/01 02:38:28;;;;;;;4.27;2.43;;;;;;;14.90;62.40;98184.78;5014900;28;20206;-76
2023/06/01 02:40:54;;;;;;;4.80;2.80;;;;;;;14.90;62.08;98190.13;5014795;28;20202;-77
2023/06/01 02:43:21;;;;;;;4.97;2.90;;;;;;;15.07;60.92;98187.44;5014744;28;20237;-76
2023/06/01 02:45:47;;;;;;;5.93;3.23;;;;;;;14.98;63.74;98176.34;5015013;28;20230;-76
2023/06/01 02:48:14;;;;;;;4.67;3.00;;;;;;;14.78;65.23;98189.38;5014761;28;20210;-77
2023/06/01 02:50:40;;;;;;;6.70;2.70;;;;;;;14.73;63.92;98183.94;5014676;28;20212;-76
2023/06/01 02:53:07;;;;;;;4.63;2.70;;;;;;;14.68;64.58;98183.88;5014661;28;20206;-76
2023/06/01 02:55:33;;;;;;;4.30;2.43;;;;;;;14.71;63.73;98183.38;5014482;28;20262;-76
2023/06/01 02:58:00;;;;;;;3.90;2.90;;;;;;;14.80;62.79;98186.47;5014621;28;20207;-76
2023/06/01 03:00:27;;;;;;;3.70;2.67;;;;;;;14.70;62.87;98183.63;5014505;28;20207;-76
2023/06/01 03:02:53;;;;;;;5.83;2.53;;;;;;;14.66;63.38;98185.16;5014308;28;20296;-76
2023/06/01 03:05:21;;;;;;;4.60;2.60;;;;;;;14.76;63.24;98191.50;5014224;28;20225;-77
2023/06/01 03:07:48;;;;;;;4.10;2.87;;;;;;;14.83;62.80;98191.34;5014073;28;20318;-76
2023/06/01 03:10:14;;;;;;;5.40;2.47;;;;;;;14.77;62.97;98186.94;5014247;28;20213;-77
2023/06/01 03:12:41;;;;;;;5.87;2.80;;;;;;;14.71;64.35;98188.75;5014295;28;20202;-77
2023/06/01 03:15:07;;;;;;;6.43;2.90;;;;;;;14.72;63.39;98189.53;5014044;28;20690;-76
2023/06/01 03:17:34;;;;;;;6.90;2.90;;;;;;;14.69;64.66;98187.31;5013914;28;20210;-76
2023/06/01 03:20:00;;;;;;;3.93;2.50;;;;;;;14.57;65.05;98189.28;5013934;28;20583;-76
2023/06/01 03:22:26;;;;;;;4.40;2.97;;;;;;;14.48;66.60;98188.84;5014140;28;20227;-77
2023/06/01 03:24:54;;;;;;;3.63;2.73;;;;;;;14.60;64.19;98192.28;5013810;28;20665;-77
2023/06/01 03:27:21;;;;;;;5.97;2.83;;;;;;;14.59;65.68;98200.53;5014096;28;20336;-76
2023/06/01 03:29:47;;;;;;;4.67;2.80;;;;;;;14.58;64.21;98201.59;5014048;28;20206;-76
2023/06/01 03:32:14;;;;;;;3.77;2.27;;;;;;;14.65;65.17;98200.38;5013984;28;20205;-77
2023/06/01 03:34:41;;;;;;;5.87;2.97;;;;;;;14.56;64.95;98201.84;5014181;28;20207;-76
2023/06/01 03:37:08;;;;;;;6.33;3.20;;;;;;;14.48;64.59;98198.75;5013874;28;20226;-76
2023/06/01 03:39:35;;;;;;;5.30;2.77;;;;;;;14.51;65.01;98201.75;5013908;28;20217;-76
2023/06/01 03:42:02;;;;;;;3.83;2.97;;;;;;;14.41;65.99;98196.22;5013903;28;20223;-76
2023/06/01 03:44:28;;;;;;;5.60;2.40;;;;;;;14.53;66.56;98198.84;5013801;28;20572;-76
2023/06/01 03:46:55;;;;;;;5.23;2.77;;;;;;;14.60;66.06;98194.16;5013535;28;20230;-76
2023/06/01 03:49:21;;;;;;;5.00;2.60;;;;;;;14.61;65.59;98193.09;5013710;28;20298;-77
2023/06/01 03:51:47;;;;;;;3.73;2.80;;;;;;;14.65;65.75;98200.38;5013794;28;20222;-76
2023/06/01 03:54:14;;;;;;;3.87;2.40;;;;;;;14.53;65.10;98199.66;5013287;28;20674;-76
2023/06/01 03:56:41;;;;;;;6.03;2.40;;;;;;;14.65;65.32;98210.31;5013224;28;20732;-76
2023/06/01 03:59:09;;;;;;;5.77;2.73;;;;;;;14.67;64.72;98200.16;5013627;28;20716;-76
2023/06/01 04:01:39;;;;;;;5.50;2.40;;;;;;;14.74;65.01;98211.53;5013465;28;20209;-76
2023/06/01 04:04:08;;;;;;;5.20;2.67;;;;;;;14.60;66.58;98215.56;5013083;28;20234;-76
2023/06/01 04:06:36;;;;;;;3.13;2.40;;;;;;;14.55;66.03;98215.44;5013289;28;20668;-76
2023/06/01 04:09:06;;;;;;;7.87;2.57;;;;;;;14.47;68.35;98219.31;5013372;28;20206;-76
2023/06/01 04:11:36;;;;;;;5.03;2.80;;;;;;;14.49;67.00;98211.88;5013585;28;20195;-76
2023/06/01 04:14:02;;;;;;;5.47;2.53;;;;;;;14.60;66.45;98218.25;5015349;28;20217;-76
2023/06/01 04:16:29;;;;;;;3.17;2.50;;;;;;;14.49;65.86;98211.06;5017433;28;20226;-76
2023/06/01 04:18:55;;;;;;;5.57;2.93;;;;;;;14.67;65.32;98214.34;5017612;28;20214;-77
2023/06/01 04:21:22;;;;;;;5.33;2.70;;;;;;;14.58;65.54;98215.81;5017146;28;20229;-76
2023/06/01 04:23:49;;;;;;;4.67;2.80;;;;;;;14.64;65.40;98216.69;5016936;28;20225;-77
2023/06/01 04:26:17;;;;;;;5.03;2.80;;;;;;;14.51;66.24;98209.78;5017213;28;20223;-76
2023/06/01 04:28:45;;;;;;;4.83;2.90;;;;;;;14.51;66.24;98217.78;5016945;28;20214;-76
2023/06/01 04:31:16;;;;;;;3.33;2.60;;;;;;;14.50;66.54;98221.53;5017232;28;20616;-76
2023/06/01 04:33:52;;;;;;;3.37;2.60;;;;;;;14.56;66.61;98215.22;5017200;28;20222;-76
2023/06/01 04:36:22;;;;;;;6.10;2.83;;;;;;;14.63;66.62;98217.75;5017179;28;20229;-76
2023/06/01 04:38:52;;;;;;;5.80;3.37;;;;;;;14.65;67.14;98213.75;5017226;28;20210;-76
2023/06/01 04:41:20;;;;;;;4.40;2.50;;;;;;;14.83;66.26;98216.22;5016918;28;20274;-76
2023/06/01 04:43:51;;;;;;;5.67;2.80;;;;;;;14.92;66.16;98214.78;5016812;28;20280;-76
2023/06/01 04:46:23;;;;;;;3.80;2.67;;;;;;;15.02;66.14;98214.16;5016575;28;20283;-76
2023/06/01 04:48:51;;;;;;;5.23;2.90;;;;;;;15.04;65.66;98218.19;5016864;28;20554;-76
2023/06/01 04:51:19;;;;;;;5.83;2.93;;;;;;;15.14;65.48;98214.84;5016651;28;20225;-76
2023/06/01 04:53:51;;;;;;;6.93;2.83;;;;;;;15.20;65.21;98217.38;5016419;28;20701;-77
2023/06/01 04:56:20;;;;;;;4.27;2.57;;;;;;;15.17;65.42;98219.72;5016653;28;20593;-76
2023/06/01 04:58:47;;;;;;;5.23;3.03;;;;;;;15.18;65.57;98227.53;5016735;28;20210;-76
2023/06/01 05:01:17;;;;;;;6.30;2.90;;;;;;;15.23;65.22;98218.75;5016573;28;20260;-76
2023/06/01 05:03:45;;;;;;;5.80;2.97;;;;;;;15.40;65.79;98228.44;5016403;28;20233;-76
2023/06/01 05:06:12;;;;;;;6.47;2.60;;;;;;;15.72;63.37;98229.44;5016210;28;20246;-76
2023/06/01 05:08:40;;;;;;;4.53;2.97;;;;;;;16.12;61.57;98229.16;5016460;28;20210;-76
2023/06/01 05:11:07;;;;;;;6.63;2.80;;;;;;;16.23;60.81;98229.03;5016509;28;20208;-76
2023/06/01 05:13:37;;;;;;;5.30;2.67;;;;;;;16.37;60.34;98227.59;5016172;28;20203;-76
2023/06/01 05:16:05;;;;;;;5.60;3.43;;;;;;;16.53;59.45;98232.09;5016136;28;20230;-77
2023/06/01 05:18:32;;;;;;;5.47;2.70;;;;;;;16.80;58.21;98232.91;5016409;28;20207;-76
2023/06/01 05:20:59;;;;;;;7.03;2.83;;;;;;;17.99;55.24;98232.19;5016176;28;20203;-77
2023/06/01 05:23:28;;;;;;;4.77;2.60;;;;;;;17.99;54.51;98234.91;5015733;28;20314;-77
2023/06/01 05:26:01;;;;;;;9.87;2.97;;;;;;;16.56;59.41;98236.16;5014705;28;20242;-76
2023/06/01 05:28:28;;;;;;;6.80;2.73;;;;;;;16.97;58.71;98233.59;5016041;28;20198;-77
2023/06/01 05:30:54;;;;;;;6.73;2.97;;;;;;;17.08;58.89;98227.25;5015740;28;20218;-76
2023/06/01 05:33:21;;;;;;;4.83;3.40;;;;;;;17.09;59.91;98231.56;5015778;28;20202;-77
2023/06/01 05:35:47;;;;;;;7.67;3.13;;;;;;;17.24;59.59;98231.69;5015812;28;20242;-77
2023/06/01 05:38:13;;;;;;;7.50;3.30;;;;;;;17.09;58.76;98228.88;5015761;28;20217;-77
2023/06/01 05:40:40;;;;;;;6.70;3.00;;;;;;;17.04;59.58;98236.06;5015539;28;20214;-76
2023/06/01 05:43:07;;;;;;;10.77;3.40;;;;;;;17.20;59.95;98227.88;5015297;28;20701;-74
2023/06/01 05:45:34;;;;;;;8.30;3.10;;;;;;;17.07;59.43;98232.88;5015587;28;20230;-74
2023/06/01 05:48:00;;;;;;;6.87;3.30;;;;;;;17.26;59.41;98234.94;5015863;28;20206;-75
2023/06/01 05:50:27;;;;;;;5.23;3.10;;;;;;;17.32;60.41;98235.78;5015712;28;20217;-74
2023/06/01 05:52:53;;;;;;;6.93;3.30;;;;;;;17.08;61.11;98223.75;5015439;28;20199;-74
2023/06/01 05:55:20;;;;;;;7.23;3.10;;;;;;;16.38;61.19;98228.41;5015467;28;20221;-74
2023/06/01 05:57:46;;;;;;;7.87;3.50;;;;;;;16.83;60.46;98229.69;5015323;28;20221;-74
2023/06/01 06:00:15;;;;;;;5.13;3.10;;;;;;;16.94;61.43;98231.44;5015517;28;20207;-74
2023/06/01 06:02:42;;;;;;;5.13;3.57;;;;;;;17.17;60.51;98227.59;5015146;28;20693;-74
2023/06/01 06:05:09;;;;;;;6.57;3.37;;;;;;;17.38;61.47;98235.53;5015246;28;20207;-74
2023/06/01 06:07:36;;;;;;;5.30;3.50;;;;;;;17.52;62.79;98234.09;5014842;28;20215;-76
2023/06/01 06:10:03;;;;;;;6.47;3.20;;;;;;;17.58;60.20;98234.91;5014303;28;20213;-76
2023/06/01 06:12:30;;;;;;;6.27;3.37;;;;;;;17.56;61.40;98237.84;5013644;28;20202;-76
2023/06/01 06:14:56;;;;;;;7.30;3.30;;;;;;;17.69;60.12;98237.41;5014006;28;20290;-77
2023/06/01 06:17:23;;;;;;;5.93;3.43;;;;;;;17.91;61.00;98237.28;5013956;28;20253;-76
2023/06/01 06:19:49;;;;;;;5.33;3.43;;;;;;;17.81;60.18;98238.03;5013926;28;20213;-77
2023/06/01 06:22:16;;;;;;;6.70;3.57;;;;;;;17.89;60.44;98237.53;5014078;28;20670;-77
2023/06/01 06:24:42;;;;;;;7.00;3.67;;;;;;;17.96;60.05;98248.84;5014655;28;20214;-76
2023/06/01 06:27:10;;;;;;;5.40;3.43;;;;;;;17.79;59.86;98234.81;5014850;28;20230;-76
2023/06/01 06:29:36;;;;;;;9.40;3.53;;;;;;;18.04;60.23;98242.16;5014690;28;20210;-77
2023/06/01 06:32:03;;;;;;;5.87;3.10;;;;;;;17.89;60.66;98242.09;5015093;28;20553;-77
2023/06/01 06:34:35;;;;;;;5.03;3.13;;;;;;;18.11;58.60;98240.88;5014380;28;20732;-74
2023/06/01 06:37:02;;;;;;;7.13;3.17;;;;;;;18.18;59.71;98238.75;5013831;28;20222;-74
2023/06/01 06:39:28;;;;;;;5.33;3.37;;;;;;;18.11;58.05;98240.88;5014529;28;20237;-75
2023/06/01 06:41:55;;;;;;;6.47;3.13;;;;;;;18.54;58.18;98237.84;5013679;28;20678;-74
2023/06/01 06:44:21;;;;;;;6.13;3.23;;;;;;;18.60;56.75;98239.44;5014576;28;20230;-74
2023/06/01 06:46:47;;;;;;;10.07;3.20;;;;;;;18.55;55.76;98247.53;5014951;28;20230;-76
2023/06/01 06:49:39;;;;;;;5.57;3.07;;;;;;;18.80;55.81;98233.31;5015491;28;20206;-76
2023/06/01 06:52:06;;;;;;;8.67;3.17;;;;;;;18.83;55.03;98238.97;5015076;28;20203;-76
2023/06/01 06:54:32;;;;;;;5.57;2.97;;;;;;;18.95;52.57;98236.84;5015235;28;20206;-76
2023/06/01 06:56:58;;;;;;;5.37;2.97;;;;;;;18.83;53.85;98236.25;5014685;28;20230;-76
2023/06/01 06:59:25;;;;;;;6.60;3.20;;;;;;;18.92;52.72;98240.06;5012962;28;20212;-76
2023/06/01 07:01:51;;;;;;;5.90;3.00;;;;;;;19.22;52.58;98232.03;5012433;28;20824;-76
2023/06/01 07:04:17;;;;;;;4.67;3.20;;;;;;;19.22;53.96;98236.56;5003408;28;20222;-76
2023/06/01 07:06:44;;;;;;;8.70;3.20;;;;;;;19.38;50.08;98241.75;5002675;28;20226;-76
2023/06/01 07:09:11;;;;;;;7.43;3.03;;;;;;;19.14;51.12;98237.94;5002040;28;20226;-76
2023/06/01 07:11:37;;;;;;;4.60;3.30;;;;;;;19.48;50.48;98244.44;4993879;28;20277;-74
2023/06/01 07:14:03;;;;;;;5.67;3.40;;;;;;;19.31;51.36;98245.78;4994570;28;20203;-75
2023/06/01 07:16:30;;;;;;;6.60;3.33;;;;;;;19.31;52.13;98238.50;4994573;28;20231;-74
2023/06/01 07:18:57;;;;;;;4.07;3.23;;;;;;;19.60;50.97;98238.75;4994430;28;20207;-74
2023/06/01 07:21:23;;;;;;;6.60;3.00;;;;;;;19.78;50.50;98238.19;4994023;28;20207;-74
2023/06/01 07:23:50;;;;;;;5.97;3.30;;;;;;;19.44;52.55;98239.84;4994162;28;20231;-74
2023/06/01 07:26:16;;;;;;;7.50;3.40;;;;;;;19.57;51.74;98238.50;4994180;28;20595;-74
2023/06/01 07:28:42;;;;;;;4.83;3.30;;;;;;;19.68;51.75;98230.13;4994387;28;20203;-74
2023/06/01 07:31:09;;;;;;;6.30;3.63;;;;;;;19.26;52.06;98237.69;5021298;28;20206;-74
2023/06/01 07:33:37;;;;;;;6.70;3.60;;;;;;;19.58;53.84;98228.25;5022552;28;20276;-74
2023/06/01 07:36:04;;;;;;;5.53;3.30;;;;;;;19.99;52.94;98228.94;5013646;28;20280;-74
2023/06/01 07:38:31;;;;;;;4.30;3.43;;;;;;;19.56;51.07;98234.97;5013891;28;20212;-74
2023/06/01 07:40:57;;;;;;;5.10;3.53;;;;;;;19.40;52.56;98234.19;5013850;28;20202;-74
2023/06/01 07:43:23;;;;;;;4.80;3.20;;;;;;;19.61;52.49;98234.97;5013369;28;20223;-74
2023/06/01 07:45:50;;;;;;;8.27;3.30;;;;;;;19.85;52.77;98233.28;5013757;28;20259;-74
2023/06/01 07:48:16;;;;;;;4.13;3.07;;;;;;;20.05;51.38;98237.84;5012983;28;20206;-74
2023/06/01 07:50:43;;;;;;;4.43;3.03;;;;;;;20.22;49.19;98232.97;5013479;28;20218;-74
2023/06/01 07:53:09;;;;;;;4.50;3.60;;;;;;;19.74;50.84;98234.41;5013966;28;20737;-74
2023/06/01 07:55:36;;;;;;;6.13;3.27;;;;;;;19.98;52.50;98234.63;5014317;28;20620;-74
2023/06/01 07:58:03;;;;;;;6.60;3.67;;;;;;;20.33;51.25;98229.13;5013686;28;20573;-74
2023/06/01 08:00:30;;;;;;;4.27;3.37;;;;;;;20.56;49.94;98225.75;5013661;28;20241;-74
2023/06/01 08:02:57;;;;;;;4.40;3.47;;;;;;;19.63;50.40;98228.22;5013582;28;20210;-74
2023/06/01 08:05:23;;;;;;;6.17;2.90;;;;;;;20.21;50.73;98225.94;5012991;28;20674;-74
2023/06/01 08:07:50;;;;;;;5.33;3.10;;;;;;;20.52;51.24;98232.84;5009304;28;20218;-74
2023/06/01 08:10:16;;;;;;;5.07;3.13;;;;;;;20.69;48.23;98230.56;4993975;28;20218;-74
2023/06/01 08:12:43;;;;;;;5.70;3.73;;;;;;;20.76;48.18;98225.66;4994179;28;20211;-74
2023/06/01 08:15:11;;;;;;;7.47;3.43;;;;;;;20.68;48.20;98224.38;4993496;28;20667;-74
2023/06/01 08:17:38;;;;;;;7.57;3.73;;;;;;;20.95;48.75;98223.94;4993885;28;20203;-74
2023/06/01 08:20:10;;;;;;;7.33;3.63;;;;;;;21.14;46.60;98228.41;4995164;28;20207;-74
2023/06/01 08:22:36;;;;;;;5.43;3.40;;;;;;;20.62;46.86;98224.66;4993836;28;20203;-74
2023/06/01 08:25:03;;;;;;;4.17;3.50;;;;;;;21.04;48.48;98228.47;4993750;28;20231;-74
2023/06/01 08:27:30;;;;;;;4.70;3.30;;;;;;;21.22;47.92;98225.09;4993587;28;20223;-74
2023/06/01 08:29:56;;;;;;;6.47;3.70;;;;;;;21.14;46.49;98214.06;4993820;28;20218;-74
2023/06/01 08:32:22;;;;;;;4.23;3.50;;;;;;;21.55;46.02;98220.72;4993989;28;20226;-74
2023/06/01 08:34:49;;;;;;;7.07;3.50;;;;;;;21.81;46.13;98212.13;4993783;28;20204;-74
2023/06/01 08:37:16;;;;;;;6.50;3.70;;;;;;;21.15;45.84;98212.97;4993166;28;20745;-74
2023/06/01 08:39:42;;;;;;;4.57;3.53;;;;;;;21.61;46.19;98214.19;4993541;28;20230;-74
2023/06/01 08:42:16;;;;;;;5.50;3.77;;;;;;;21.73;44.90;98211.94;4993632;28;20218;-74
2023/06/01 08:44:42;;;;;;;5.13;3.67;;;;;;;22.01;46.31;98211.06;5001239;28;20211;-75
2023/06/01 08:47:10;;;;;;;6.47;3.97;;;;;;;22.01;44.39;98205.66;5003823;28;20655;-74
2023/06/01 08:49:37;;;;;;;7.80;3.80;;;;;;;21.94;45.19;98206.03;5002727;28;20204;-74
2023/06/01 08:52:11;;;;;;;5.03;4.13;;;;;;;22.20;44.66;98201.13;5001651;28;20685;-74
2023/06/01 08:54:43;;;;;;;5.45;3.72;;;;;;;22.22;44.33;98207.03;5003227;28;20191;-74
2023/06/01 08:57:13;;;;;;;7.00;4.18;;;;;;;22.39;44.12;98207.38;5001428;28;20269;-74
2023/06/01 08:59:39;;;;;;;6.17;3.93;;;;;;;22.46;44.17;98203.22;5002873;28;20654;-74
2023/06/01 09:02:06;;;;;;;4.82;3.65;;;;;;;22.55;43.73;98196.06;5008398;28;20202;-74
2023/06/01 09:04:37;;;;;;;8.10;4.10;;;;;;;22.59;43.27;98209.81;5014484;28;20226;-74
2023/06/01 09:07:04;;;;;;;4.57;4.03;;;;;;;22.60;43.56;98203.31;5013104;28;20270;-73
2023/06/01 09:09:30;;;;;;;5.85;3.55;;;;;;;21.96;43.10;98214.66;5016582;28;20202;-74
2023/06/01 09:12:19;;;;;;;6.93;4.23;;;;;;;22.25;44.60;98211.88;5016364;28;20207;-74
2023/06/01 09:14:46;;;;;;;7.25;3.75;;;;;;;22.62;44.77;98201.13;5016509;28;20211;-74
2023/06/01 09:17:22;;;;;;;7.68;4.00;;;;;;;22.77;43.39;98203.59;5016013;28;20237;-74
2023/06/01 09:19:56;;;;;;;5.55;3.63;;;;;;;23.02;44.95;98200.53;4999490;28;20199;-74
2023/06/01 09:22:23;;;;;;;7.30;4.13;;;;;;;23.07;41.79;98205.88;4996548;28;20639;-74
2023/06/01 09:24:58;;;;;;;5.65;3.95;;;;;;;23.23;42.92;98202.66;4996232;28;20717;-74
2023/06/01 09:27:25;;;;;;;5.78;3.83;;;;;;;22.41;43.02;98205.16;4996472;28;20281;-74
2023/06/01 09:29:56;;;;;;;7.30;3.80;;;;;;;22.34;43.28;98204.72;4996495;28;20256;-74
2023/06/01 09:32:24;;;;;;;7.20;3.80;;;;;;;22.99;44.01;98196.50;4996580;28;20247;-74
2023/06/01 09:34:50;;;;;;;6.75;4.25;;;;;;;23.44;41.24;98193.06;4996151;28;20659;-74
2023/06/01 09:37:17;;;;;;;5.18;4.07;;;;;;;23.46;42.20;98188.13;4995948;28;20223;-74
2023/06/01 09:39:43;;;;;;;5.10;3.60;;;;;;;23.77;42.32;98196.53;4996380;28;20213;-74
2023/06/01 09:42:10;;;;;;;7.82;4.25;;;;;;;23.96;41.22;98191.84;4996029;28;20207;-74
2023/06/01 09:44:41;;;;;;;6.10;4.15;;;;;;;24.10;40.98;98192.69;5001324;28;20239;-74
2023/06/01 09:47:12;;;;;;;5.43;4.15;;;;;;;23.82;41.26;98191.00;5005772;28;20269;-74
2023/06/01 09:49:40;;;;;;;6.78;4.10;;;;;;;22.96;42.51;98188.13;5006068;28;20202;-74
2023/06/01 09:52:07;;;;;;;7.18;4.43;;;;;;;23.14;42.84;98190.81;5005265;28;20519;-74
2023/06/01 09:54:46;;;;;;;6.93;4.20;;;;;;;23.86;41.38;98186.56;5004536;28;20612;-74
2023/06/01 09:57:13;;;;;;;5.40;3.85;;;;;;;23.73;42.36;98169.19;5002814;28;20222;-74
2023/06/01 09:59:45;;;;;;;6.50;4.30;;;;;;;24.06;40.30;98169.94;5006212;28;20199;-74
2023/06/01 10:02:18;;;;;;;6.38;3.85;;;;;;;23.98;40.67;98171.44;5005619;28;20195;-74
2023/06/01 10:04:53;;;;;;;6.97;4.00;;;;;;;23.70;41.54;98174.41;5004524;28;20215;-74
2023/06/01 10:07:21;;;;;;;6.63;4.35;;;;;;;23.31;41.43;98176.75;5003715;28;20227;-74
2023/06/01 10:09:52;;;;;;;7.25;4.70;;;;;;;23.72;40.15;98172.19;5005590;28;20202;-74
2023/06/01 10:12:19;;;;;;;6.45;4.13;;;;;;;24.04;40.16;98170.22;5005479;28;20199;-74
2023/06/01 10:14:45;;;;;;;5.78;4.03;;;;;;;24.25;41.19;98165.19;5004471;28;20199;-74
2023/06/01 10:17:14;;;;;;;5.72;4.20;;;;;;;24.57;39.79;98165.03;5004905;28;20321;-74
2023/06/01 10:19:41;;;;;;;8.07;4.20;;;;;;;24.16;40.80;98167.00;5006064;28;20199;-74
2023/06/01 10:22:07;;;;;;;5.07;4.00;;;;;;;24.28;40.09;98159.16;5004728;28;20209;-74
2023/06/01 10:24:40;;;;;;;5.53;3.90;;;;;;;24.10;39.85;98149.22;5004346;28;20223;-74
2023/06/01 10:27:23;;;;;;;11.38;5.45;;;;;;;25.00;39.98;98156.13;5004345;28;20651;-74
2023/06/01 10:29:52;;;;;;;6.85;4.30;;;;;;;25.11;39.42;98160.19;5004502;28;20662;-74
2023/06/01 10:32:37;;;;;;;5.75;4.10;;;;;;;24.54;38.24;98157.47;5003284;28;20203;-74
2023/06/01 10:35:05;;;;;;;6.72;4.40;;;;;;;24.46;39.55;98144.63;5003709;28;20592;-74
2023/06/01 10:37:31;;;;;;;7.25;4.30;;;;;;;24.85;36.30;98152.97;5004164;28;20674;-74
2023/06/01 10:40:16;;;;;;;5.70;4.10;;;;;;;25.00;34.89;98149.88;5005602;28;20213;-74
2023/06/01 10:42:43;;;;;;;4.20;3.78;;;;;;;25.05;33.34;98141.63;5003129;28;20196;-74
2023/06/01 10:45:35;;;;;;;5.57;4.10;;;;;;;25.03;34.84;98150.09;5003947;28;20705;-74
2023/06/01 10:48:03;;;;;;;5.95;4.20;;;;;;;25.29;35.65;98133.94;4995349;28;20203;-74
2023/06/01 10:50:29;;;;;;;4.60;4.07;;;;;;;25.17;36.21;98150.00;4995028;28;20207;-74
2023/06/01 10:52:57;;;;;;;4.53;4.13;;;;;;;25.28;33.44;98135.06;5012502;28;20203;-74
2023/06/01 10:55:27;;;;;;;5.68;3.88;;;;;;;24.62;34.16;98135.03;5014237;28;20214;-74
2023/06/01 10:58:23;;;;;;;5.28;4.20;;;;;;;24.16;36.20;98135.19;5014191;28;20194;-74
2023/06/01 11:00:50;;;;;;;9.45;3.78;;;;;;;24.75;37.30;98126.03;5014231;28;20282;-74
2023/06/01 11:03:17;;;;;;;8.60;3.90;;;;;;;24.83;37.62;98125.28;5013985;28;20210;-74
2023/06/01 11:05:49;;;;;;;4.68;4.03;;;;;;;25.33;37.20;98133.00;5013883;28;20274;-74
2023/06/01 11:08:18;;;;;;;5.97;3.75;;;;;;;25.20;35.95;98122.97;5014346;28;20186;-75
2023/06/01 11:10:53;;;;;;;4.88;3.67;;;;;;;25.38;35.54;98126.63;5014388;28;20206;-74
2023/06/01 11:13:21;;;;;;;6.28;4.00;;;;;;;25.27;36.18;98120.66;5013945;28;20217;-74
2023/06/01 11:16:09;;;;;;;6.68;3.75;;;;;;;25.27;34.79;98119.84;5014074;28;20219;-74
2023/06/01 11:18:42;;;;;;;5.40;3.70;;;;;;;25.42;35.90;98117.53;5013967;28;20206;-74
2023/06/01 11:21:10;;;;;;;5.72;4.45;;;;;;;25.48;35.40;98126.34;5014081;28;20218;-74
2023/06/01 11:23:39;;;;;;;4.32;3.90;;;;;;;25.30;35.59;98125.47;5014809;28;20214;-74
2023/06/01 11:26:09;;;;;;;9.63;4.55;;;;;;;24.67;34.90;98132.19;5013587;28;20737;-74
2023/06/01 11:28:36;;;;;;;7.07;3.88;;;;;;;24.48;36.14;98118.75;5014118;28;20210;-75
2023/06/01 11:31:04;;;;;;;6.47;3.95;;;;;;;24.63;34.66;98114.88;5013779;28;20210;-74
2023/06/01 11:33:33;;;;;;;5.07;3.60;;;;;;;24.63;35.10;98114.88;5013690;28;20665;-74
2023/06/01 11:36:00;;;;;;;6.43;3.58;;;;;;;24.63;34.84;98110.25;5013468;28;20238;-74
2023/06/01 11:38:35;;;;;;;6.20;4.05;;;;;;;24.46;34.22;98110.06;5001034;28;20737;-74
2023/06/01 11:41:06;;;;;;;6.13;4.45;;;;;;;24.91;35.37;98102.75;4994207;28;20206;-74